createdAt,value
2023-05-19T00:00:14.794Z,2.90
2023-05-19T00:03:21.726Z,3.20
2023-05-19T00:06:09.157Z,2.90
2023-05-19T00:09:00.373Z,3.40
2023-05-19T00:11:47.429Z,2.40
2023-05-19T00:14:34.326Z,2.80
2023-05-19T00:17:21.267Z,3.00
2023-05-19T00:20:08.615Z,2.90
2023-05-19T00:22:55.839Z,2.50
2023-05-19T00:25:42.661Z,3.20
2023-05-19T00:28:29.537Z,2.90
2023-05-19T00:31:16.941Z,2.50
2023-05-19T00:34:03.720Z,2.90
2023-05-19T00:36:51.946Z,2.40
2023-05-19T00:39:39.092Z,2.60
2023-05-19T00:42:26.030Z,2.50
2023-05-19T00:45:13.040Z,3.00
2023-05-19T00:47:59.640Z,2.90
2023-05-19T00:50:46.595Z,3.20
2023-05-19T00:53:34.072Z,3.40
2023-05-19T00:56:21.889Z,2.40
2023-05-19T00:59:08.796Z,4.60
2023-05-19T01:02:15.118Z,4.50
2023-05-19T01:05:02.985Z,4.60
2023-05-19T01:07:55.601Z,4.20
2023-05-19T01:10:42.404Z,3.80
2023-05-19T01:13:29.531Z,4.70
2023-05-19T01:16:26.437Z,4.40
2023-05-19T01:19:33.142Z,5.40
2023-05-19T01:22:27.308Z,6.00
2023-05-19T01:25:15.586Z,4.30
2023-05-19T01:28:14.128Z,5.50
2023-05-19T01:31:01.549Z,4.30
2023-05-19T01:33:48.639Z,3.60
2023-05-19T01:36:36.296Z,3.40
2023-05-19T01:39:24.458Z,3.60
2023-05-19T01:42:11.858Z,2.80
2023-05-19T01:44:58.765Z,2.50
2023-05-19T01:47:48.682Z,3.90
2023-05-19T01:50:36.373Z,3.60
2023-05-19T01:53:24.701Z,3.00
2023-05-19T01:56:14.894Z,1.90
2023-05-19T01:59:07.659Z,3.00
2023-05-19T02:01:57.320Z,3.30
2023-05-19T02:04:45.556Z,3.10
2023-05-19T02:07:41.120Z,3.40
2023-05-19T02:10:32.629Z,3.60
2023-05-19T02:13:21.469Z,3.00
2023-05-19T02:16:08.323Z,4.20
2023-05-19T02:18:56.514Z,2.10
2023-05-19T02:21:43.165Z,3.20
2023-05-19T02:24:29.963Z,3.40
2023-05-19T02:27:19.786Z,2.50
2023-05-19T02:30:08.360Z,3.60
2023-05-19T02:32:57.127Z,3.10
2023-05-19T02:35:43.792Z,3.70
2023-05-19T02:38:30.487Z,3.30
2023-05-19T02:41:17.739Z,3.80
2023-05-19T02:44:04.933Z,3.50
2023-05-19T02:46:52.492Z,3.50
2023-05-19T02:49:40.203Z,3.30
2023-05-19T02:52:27.904Z,3.30
2023-05-19T02:55:17.143Z,3.90
2023-05-19T02:58:05.301Z,2.90
2023-05-19T03:00:52.645Z,3.50
2023-05-19T03:03:40.071Z,3.40
2023-05-19T03:06:27.125Z,3.00
2023-05-19T03:09:14.990Z,2.00
2023-05-19T03:12:04.101Z,3.10
2023-05-19T03:14:51.349Z,2.60
2023-05-19T03:17:39.277Z,2.60
2023-05-19T03:20:26.720Z,2.50
2023-05-19T03:23:13.828Z,3.70
2023-05-19T03:26:01.332Z,3.00
2023-05-19T03:28:48.348Z,3.40
2023-05-19T03:31:35.784Z,2.10
2023-05-19T03:34:23.958Z,4.30
2023-05-19T03:37:12.977Z,4.40
2023-05-19T03:40:01.052Z,2.70
2023-05-19T03:42:48.147Z,3.20
2023-05-19T03:45:37.337Z,3.10
2023-05-19T03:48:37.327Z,4.80
2023-05-19T03:51:41.293Z,3.20
2023-05-19T03:54:42.772Z,4.40
2023-05-19T03:57:30.058Z,3.50
2023-05-19T04:00:17.406Z,3.70
2023-05-19T04:03:04.437Z,3.90
2023-05-19T04:05:52.872Z,2.50
2023-05-19T04:08:40.617Z,3.00
2023-05-19T04:11:28.502Z,3.20
2023-05-19T04:14:16.237Z,3.20
2023-05-19T04:17:04.466Z,4.20
2023-05-19T04:19:51.599Z,4.80
2023-05-19T04:22:38.823Z,3.90
2023-05-19T04:25:28.351Z,2.40
2023-05-19T04:28:16.165Z,4.20
2023-05-19T04:31:03.579Z,4.00
2023-05-19T04:33:50.970Z,3.80
2023-05-19T04:36:38.470Z,4.20
2023-05-19T04:39:26.724Z,3.10
2023-05-19T04:42:14.200Z,3.50
2023-05-19T04:45:03.698Z,4.10
2023-05-19T04:47:52.745Z,4.20
2023-05-19T04:50:42.206Z,4.60
2023-05-19T04:53:29.424Z,4.90
2023-05-19T04:56:17.153Z,3.90
2023-05-19T04:59:04.696Z,4.10
2023-05-19T05:01:52.777Z,4.30
2023-05-19T05:04:42.737Z,4.60
2023-05-19T05:07:32.328Z,5.00
2023-05-19T05:10:21.915Z,4.80
2023-05-19T05:13:11.606Z,4.30
2023-05-19T05:15:59.965Z,4.40
2023-05-19T05:18:47.897Z,4.90
2023-05-19T05:21:34.846Z,5.00
2023-05-19T05:24:22.062Z,5.30
2023-05-19T05:27:13.742Z,5.90
2023-05-19T05:30:00.862Z,4.90
2023-05-19T05:32:48.512Z,5.20
2023-05-19T05:35:56.696Z,5.00
2023-05-19T05:38:44.661Z,5.30
2023-05-19T05:41:35.531Z,5.20
2023-05-19T05:44:28.228Z,6.00
2023-05-19T05:47:17.146Z,4.70
2023-05-19T05:50:06.151Z,5.40
2023-05-19T05:52:53.799Z,6.00
2023-05-19T05:55:41.071Z,5.10
2023-05-19T05:58:29.868Z,4.60
2023-05-19T06:01:17.753Z,5.40
2023-05-19T06:04:04.847Z,5.70
2023-05-19T06:06:52.740Z,5.40
2023-05-19T06:09:42.804Z,5.50
2023-05-19T06:12:31.273Z,4.70
2023-05-19T06:15:18.516Z,5.10
2023-05-19T06:18:21.553Z,4.40
2023-05-19T06:21:10.288Z,4.50
2023-05-19T06:23:57.326Z,4.70
2023-05-19T06:26:44.668Z,5.80
2023-05-19T06:29:38.983Z,5.80
2023-05-19T06:32:26.898Z,5.50
2023-05-19T06:35:14.790Z,5.50
2023-05-19T06:38:02.388Z,4.30
2023-05-19T06:40:50.226Z,5.10
2023-05-19T06:43:36.900Z,5.70
2023-05-19T06:46:24.311Z,5.70
2023-05-19T06:49:11.358Z,5.10
2023-05-19T06:51:59.832Z,5.30
2023-05-19T06:54:47.019Z,4.80
2023-05-19T06:57:33.847Z,4.50
2023-05-19T07:00:24.034Z,6.20
2023-05-19T07:03:12.478Z,5.60
2023-05-19T07:06:00.926Z,4.60
2023-05-19T07:08:48.333Z,5.50
2023-05-19T07:11:37.071Z,4.50
2023-05-19T07:14:25.360Z,5.30
2023-05-19T07:17:13.051Z,5.20
2023-05-19T07:20:06.684Z,4.40
2023-05-19T07:22:54.225Z,4.00
2023-05-19T07:25:42.031Z,3.40
2023-05-19T07:28:28.756Z,3.50
2023-05-19T07:31:15.557Z,4.40
2023-05-19T07:34:03.242Z,4.50
2023-05-19T07:36:51.900Z,4.40
2023-05-19T07:39:39.043Z,4.40
2023-05-19T07:42:26.035Z,3.90
2023-05-19T07:45:13.057Z,4.60
2023-05-19T07:47:59.959Z,4.30
2023-05-19T07:50:47.556Z,4.30
2023-05-19T07:53:34.505Z,4.80
2023-05-19T07:56:21.644Z,3.90
2023-05-19T07:59:09.200Z,4.80
2023-05-19T08:01:56.577Z,4.90
2023-05-19T08:04:43.278Z,4.70
2023-05-19T08:07:29.999Z,5.10
2023-05-19T08:10:17.450Z,5.00
2023-05-19T08:13:05.538Z,5.10
2023-05-19T08:15:54.385Z,5.00
2023-05-19T08:18:41.910Z,4.30
2023-05-19T08:21:28.957Z,4.50
2023-05-19T08:24:16.356Z,4.70
2023-05-19T08:27:04.956Z,4.40
2023-05-19T08:29:52.149Z,5.00
2023-05-19T08:32:40.458Z,5.20
2023-05-19T08:35:27.430Z,4.70
2023-05-19T08:38:15.060Z,5.10
2023-05-19T08:41:03.975Z,4.80
2023-05-19T08:43:52.212Z,4.00
2023-05-19T08:46:40.325Z,5.00
2023-05-19T08:49:30.226Z,4.60
2023-05-19T08:52:29.641Z,4.90
2023-05-19T08:55:33.850Z,4.60
2023-05-19T08:58:21.990Z,4.90
2023-05-19T09:01:08.983Z,3.90
2023-05-19T09:03:56.373Z,4.70
2023-05-19T09:06:45.525Z,4.30
2023-05-19T09:09:32.555Z,3.90
2023-05-19T09:12:21.014Z,5.10
2023-05-19T09:15:09.052Z,3.90
2023-05-19T09:18:08.981Z,4.00
2023-05-19T09:21:00.580Z,3.70
2023-05-19T09:26:37.351Z,4.50
2023-05-19T09:29:25.774Z,3.70
2023-05-19T09:32:13.055Z,4.40
2023-05-19T09:35:02.524Z,4.00
2023-05-19T09:37:49.217Z,4.20
2023-05-19T09:40:36.206Z,4.10
2023-05-19T09:43:22.835Z,4.00
2023-05-19T09:46:14.859Z,4.00
2023-05-19T09:49:09.620Z,3.60
2023-05-19T09:51:58.681Z,4.00
2023-05-19T09:54:45.930Z,4.80
2023-05-19T09:57:36.065Z,3.00
2023-05-19T10:00:22.935Z,3.30
2023-05-19T10:03:10.527Z,3.30
2023-05-19T10:05:58.005Z,3.70
2023-05-19T10:08:45.311Z,4.50
2023-05-19T10:11:32.554Z,4.50
2023-05-19T10:14:27.242Z,4.40
2023-05-19T10:17:14.545Z,4.60
2023-05-19T10:20:01.613Z,4.10
2023-05-19T10:22:48.876Z,4.70
2023-05-19T10:25:37.274Z,4.10
2023-05-19T10:28:28.288Z,4.40
2023-05-19T10:31:19.548Z,3.20
2023-05-19T10:34:29.719Z,4.30
2023-05-19T10:37:27.061Z,4.20
2023-05-19T10:40:21.090Z,4.70
2023-05-19T10:43:17.637Z,4.70
2023-05-19T10:46:06.386Z,4.10
2023-05-19T10:48:54.172Z,4.60
2023-05-19T10:51:45.459Z,4.40
2023-05-19T10:54:43.431Z,7.60
2023-05-19T10:57:34.014Z,6.30
2023-05-19T11:00:31.893Z,6.30
2023-05-19T11:03:24.812Z,5.60
2023-05-19T11:06:19.176Z,4.00
2023-05-19T11:09:17.928Z,3.90
2023-05-19T11:12:06.101Z,5.80
2023-05-19T11:14:52.998Z,4.20
2023-05-19T11:17:42.187Z,4.40
2023-05-19T11:20:34.600Z,4.80
2023-05-19T11:23:22.204Z,4.30
2023-05-19T11:26:09.178Z,5.50
2023-05-19T11:28:57.403Z,4.10
2023-05-19T11:31:45.133Z,4.40
2023-05-19T11:34:33.455Z,4.00
2023-05-19T11:37:21.580Z,4.90
2023-05-19T11:40:09.167Z,4.70
2023-05-19T11:42:56.999Z,7.50
2023-05-19T11:45:44.144Z,5.40
2023-05-19T11:48:32.029Z,4.90
2023-05-19T11:51:21.188Z,5.10
2023-05-19T11:54:08.460Z,5.70
2023-05-19T11:56:55.528Z,4.20
2023-05-19T11:59:45.788Z,4.20
2023-05-19T12:02:33.346Z,3.50
2023-05-19T12:05:26.990Z,3.50
2023-05-19T12:08:17.156Z,3.70
2023-05-19T12:11:04.946Z,4.70
2023-05-19T12:13:55.247Z,4.70
2023-05-19T12:16:42.280Z,4.20
2023-05-19T12:19:30.900Z,3.80
2023-05-19T12:22:18.306Z,5.10
2023-05-19T12:25:06.401Z,4.20
2023-05-19T12:27:58.123Z,4.00
2023-05-19T12:30:52.168Z,4.20
2023-05-19T12:33:39.899Z,4.30
2023-05-19T12:36:28.665Z,5.20
2023-05-19T12:39:15.812Z,3.90
2023-05-19T12:42:10.087Z,3.90
2023-05-19T12:45:01.552Z,4.20
2023-05-19T12:47:51.350Z,4.70
2023-05-19T12:50:38.432Z,4.60
2023-05-19T12:53:27.805Z,4.80
2023-05-19T12:56:15.852Z,5.10
2023-05-19T12:59:03.135Z,4.70
2023-05-19T13:01:59.364Z,4.50
2023-05-19T13:04:46.970Z,4.00
2023-05-19T13:07:35.787Z,4.60
2023-05-19T13:10:24.043Z,5.50
2023-05-19T13:13:11.068Z,5.20
2023-05-19T13:15:57.888Z,5.40
2023-05-19T13:18:55.030Z,6.30
2023-05-19T13:21:44.106Z,5.40
2023-05-19T13:24:31.490Z,4.80
2023-05-19T13:27:18.833Z,5.60
2023-05-19T13:30:05.835Z,5.50
2023-05-19T13:32:52.984Z,5.10
2023-05-19T13:35:40.263Z,5.10
2023-05-19T13:38:27.806Z,5.30
2023-05-19T13:41:16.091Z,5.40
2023-05-19T13:44:03.260Z,4.80
2023-05-19T13:46:50.811Z,4.90
2023-05-19T13:49:41.401Z,5.10
2023-05-19T13:52:29.812Z,4.70
2023-05-19T13:55:18.193Z,3.60
2023-05-19T13:58:05.530Z,4.10
2023-05-19T14:00:54.877Z,4.60
2023-05-19T14:03:42.779Z,4.40
2023-05-19T14:06:30.190Z,4.20
2023-05-19T14:09:17.024Z,4.80
2023-05-19T14:12:04.397Z,4.50
2023-05-19T14:14:52.095Z,4.40
2023-05-19T14:17:38.945Z,5.50
2023-05-19T14:20:27.950Z,4.90
2023-05-19T14:23:17.111Z,4.50
2023-05-19T14:26:04.202Z,5.20
2023-05-19T14:28:51.674Z,5.70
2023-05-19T14:31:39.239Z,6.40
2023-05-19T14:34:26.526Z,5.00
2023-05-19T14:37:13.554Z,5.00
2023-05-19T14:40:01.460Z,4.50
2023-05-19T14:42:48.156Z,4.40
2023-05-19T14:45:35.486Z,4.40
2023-05-19T14:48:22.699Z,5.40
2023-05-19T14:51:10.228Z,5.60
2023-05-19T14:53:57.705Z,5.70
2023-05-19T14:56:44.879Z,5.20
2023-05-19T14:59:32.559Z,6.30
2023-05-19T15:02:19.164Z,6.70
2023-05-19T15:05:08.074Z,5.30
2023-05-19T15:07:55.341Z,7.00
2023-05-19T15:10:43.790Z,6.10
2023-05-19T15:13:30.946Z,6.00
2023-05-19T15:16:18.534Z,6.50
2023-05-19T15:19:06.010Z,7.60
2023-05-19T15:21:52.750Z,6.40
2023-05-19T15:24:39.381Z,6.00
2023-05-19T15:27:26.169Z,5.70
2023-05-19T15:30:13.034Z,7.10
2023-05-19T15:33:00.774Z,5.80
2023-05-19T15:35:51.609Z,6.00
2023-05-19T15:38:38.940Z,6.50
2023-05-19T15:41:27.132Z,6.70
2023-05-19T15:44:14.282Z,5.90
2023-05-19T15:47:01.428Z,5.90
2023-05-19T15:49:48.404Z,5.50
2023-05-19T15:52:34.955Z,6.40
2023-05-19T15:55:22.828Z,5.80
2023-05-19T15:58:10.023Z,6.10
2023-05-19T16:00:58.444Z,6.90
2023-05-19T16:03:46.741Z,6.60
2023-05-19T16:06:35.428Z,6.00
2023-05-19T16:09:23.372Z,6.60
2023-05-19T16:12:10.585Z,8.80
2023-05-19T16:14:57.482Z,8.20
2023-05-19T16:17:46.709Z,7.70
2023-05-19T16:20:34.534Z,7.00
2023-05-19T16:23:22.296Z,5.30
2023-05-19T16:26:08.982Z,5.30
2023-05-19T16:29:02.961Z,5.30
2023-05-19T16:32:12.903Z,5.40
2023-05-19T16:35:29.923Z,5.90
2023-05-19T16:38:34.500Z,6.00
2023-05-19T16:41:43.553Z,7.20
2023-05-19T16:44:43.398Z,5.90
2023-05-19T16:47:33.204Z,6.80
2023-05-19T16:50:22.648Z,7.00
2023-05-19T16:53:12.935Z,6.40
2023-05-19T16:56:03.682Z,6.60
2023-05-19T16:58:52.111Z,7.30
2023-05-19T17:01:40.957Z,7.50
2023-05-19T17:04:30.661Z,6.70
2023-05-19T17:07:18.485Z,6.60
2023-05-19T17:10:06.108Z,7.90
2023-05-19T17:12:54.245Z,7.70
2023-05-19T17:15:43.523Z,8.30
2023-05-19T17:18:31.492Z,7.80
2023-05-19T17:21:24.224Z,7.40
2023-05-19T17:24:13.048Z,7.60
2023-05-19T17:27:01.412Z,7.30
2023-05-19T17:29:52.082Z,7.40
2023-05-19T17:32:40.232Z,8.20
2023-05-19T17:35:28.538Z,6.90
2023-05-19T17:38:21.821Z,8.00
2023-05-19T17:41:14.142Z,8.10
2023-05-19T17:48:02.587Z,8.20
2023-05-19T17:54:57.756Z,8.00
2023-05-19T17:57:46.082Z,7.50
2023-05-19T18:00:34.009Z,7.50
2023-05-19T18:03:21.980Z,7.40
2023-05-19T18:06:10.987Z,7.10
2023-05-19T18:09:00.877Z,9.20
2023-05-19T18:11:48.683Z,7.40
2023-05-19T18:14:35.639Z,8.20
2023-05-19T18:20:28.507Z,7.80
2023-05-19T18:23:20.436Z,9.10
2023-05-19T18:26:12.281Z,8.60
2023-05-19T18:29:06.793Z,7.70
2023-05-19T18:31:55.042Z,8.50
2023-05-19T18:34:45.368Z,7.90
2023-05-19T18:37:34.040Z,10.00
2023-05-19T18:40:24.834Z,9.80
2023-05-19T18:43:13.416Z,11.40
2023-05-19T18:46:02.526Z,9.30
2023-05-19T18:48:51.887Z,9.80
2023-05-19T18:51:43.535Z,10.10
2023-05-19T18:54:33.908Z,10.30
2023-05-19T18:57:25.102Z,9.40
2023-05-19T19:00:16.628Z,9.60
2023-05-19T19:03:09.829Z,10.10
2023-05-19T19:05:59.862Z,8.30
2023-05-19T19:08:51.614Z,10.30
2023-05-19T19:11:39.686Z,9.10
2023-05-19T19:14:29.152Z,11.50
2023-05-19T19:17:17.253Z,11.30
2023-05-19T19:20:08.638Z,9.60
2023-05-19T19:22:59.096Z,10.40
2023-05-19T19:25:49.016Z,14.60
2023-05-19T19:28:37.421Z,10.80
2023-05-19T19:31:30.353Z,11.70
2023-05-19T19:34:21.400Z,10.00
2023-05-19T19:37:11.377Z,9.60
2023-05-19T19:40:00.605Z,9.20
2023-05-19T19:42:52.321Z,8.70
2023-05-19T19:45:41.690Z,9.30
2023-05-19T19:48:31.466Z,9.70
2023-05-19T19:51:22.202Z,11.00
2023-05-19T19:54:13.498Z,11.50
2023-05-19T19:57:03.216Z,11.20
2023-05-19T19:59:57.180Z,12.60
2023-05-19T20:03:03.528Z,11.50
2023-05-19T20:05:56.573Z,12.90
2023-05-19T20:08:45.333Z,13.10
2023-05-19T20:11:34.182Z,13.90
2023-05-19T20:14:22.061Z,14.00
2023-05-19T20:17:11.243Z,11.90
2023-05-19T20:20:05.448Z,12.60
2023-05-19T20:26:36.425Z,11.30
2023-05-19T20:29:36.350Z,11.50
2023-05-19T20:32:44.161Z,15.80
2023-05-19T20:35:39.396Z,16.40
2023-05-19T20:38:30.247Z,14.60
2023-05-19T20:41:19.566Z,11.20
2023-05-19T20:44:12.804Z,12.00
2023-05-19T20:47:03.692Z,10.50
2023-05-19T20:49:54.951Z,10.20
2023-05-19T20:52:44.503Z,9.70
2023-05-19T20:55:33.684Z,10.70
2023-05-19T20:58:22.510Z,10.40
2023-05-19T21:01:13.465Z,10.30
2023-05-19T21:04:21.396Z,10.10
2023-05-19T21:07:12.456Z,9.30
2023-05-19T21:10:03.266Z,11.10
2023-05-19T21:12:53.698Z,10.30
2023-05-19T21:16:09.777Z,10.40
2023-05-19T21:19:23.360Z,10.90
2023-05-19T21:27:26.740Z,11.60
2023-05-19T21:31:09.707Z,11.10
2023-05-19T21:34:08.296Z,10.20
2023-05-19T21:37:19.292Z,10.60
2023-05-19T21:40:26.188Z,11.50
2023-05-19T21:43:37.438Z,11.40
2023-05-19T21:46:46.440Z,11.30
2023-05-19T22:03:29.061Z,13.90
2023-05-19T22:06:22.886Z,12.40
2023-05-19T22:09:18.352Z,15.00
2023-05-19T22:12:11.073Z,12.20
2023-05-19T22:15:11.855Z,14.10
2023-05-19T22:18:37.552Z,14.50
2023-05-19T22:21:26.418Z,17.00
2023-05-19T22:24:18.659Z,16.90
2023-05-19T22:27:49.100Z,16.40
2023-05-19T22:30:40.916Z,17.00
2023-05-19T22:33:29.190Z,15.90
2023-05-19T22:36:24.778Z,17.20
2023-05-19T22:39:17.280Z,16.80
2023-05-19T22:42:24.140Z,16.90
2023-05-19T22:45:11.011Z,20.00
2023-05-19T22:47:57.843Z,15.80
2023-05-19T22:50:48.069Z,18.60
2023-05-19T22:53:56.065Z,19.40
2023-05-19T22:56:52.807Z,18.40
2023-05-19T22:59:48.798Z,17.00
2023-05-19T23:02:35.106Z,15.80
2023-05-19T23:05:22.332Z,18.00
2023-05-19T23:08:28.548Z,16.70
2023-05-19T23:11:27.542Z,18.00
2023-05-19T23:14:15.543Z,20.20
2023-05-19T23:17:04.718Z,21.20
2023-05-19T23:19:52.002Z,17.30
2023-05-19T23:22:39.743Z,18.30
2023-05-19T23:25:45.113Z,17.00
2023-05-19T23:28:43.731Z,14.10
2023-05-19T23:31:32.547Z,14.80
2023-05-19T23:34:42.802Z,15.60
2023-05-19T23:37:30.925Z,17.70
2023-05-19T23:40:22.200Z,16.60
2023-05-19T23:43:09.464Z,15.10
2023-05-19T23:45:55.714Z,16.70
2023-05-19T23:48:58.781Z,26.30
2023-05-19T23:51:50.328Z,25.70
2023-05-19T23:54:52.621Z,24.20
2023-05-19T23:57:39.144Z,23.70
